createdAt,value
2024-01-24T00:00:42.974Z,0.60
2024-01-24T00:03:09.906Z,0.83
2024-01-24T00:05:36.866Z,0.60
2024-01-24T00:08:03.896Z,0.63
2024-01-24T00:10:30.678Z,0.57
2024-01-24T00:12:57.652Z,0.77
2024-01-24T00:15:24.581Z,0.60
2024-01-24T00:17:51.636Z,0.53
2024-01-24T00:20:18.448Z,0.50
2024-01-24T00:22:45.326Z,0.60
2024-01-24T00:25:12.456Z,0.70
2024-01-24T00:27:39.361Z,0.50
2024-01-24T00:30:06.947Z,0.50
2024-01-24T00:32:33.892Z,0.60
2024-01-24T00:35:00.726Z,0.60
2024-01-24T00:37:27.707Z,0.60
2024-01-24T00:39:54.595Z,0.70
2024-01-24T00:42:21.528Z,0.50
2024-01-24T00:44:51.931Z,0.63
2024-01-24T00:47:20.354Z,0.50
2024-01-24T00:49:47.711Z,0.60
2024-01-24T00:52:15.004Z,0.60
2024-01-24T00:54:41.947Z,0.60
2024-01-24T00:57:08.930Z,0.43
2024-01-24T00:59:35.759Z,0.60
2024-01-24T01:02:03.835Z,0.60
2024-01-24T01:04:30.816Z,0.40
2024-01-24T01:06:57.682Z,0.40
2024-01-24T01:09:24.550Z,0.40
2024-01-24T01:11:51.346Z,0.50
2024-01-24T01:14:18.137Z,0.57
2024-01-24T01:16:44.918Z,0.50
2024-01-24T01:19:11.964Z,0.50
2024-01-24T01:21:41.546Z,0.50
2024-01-24T01:24:10.536Z,0.50
2024-01-24T01:26:37.551Z,0.57
2024-01-24T01:29:04.823Z,0.60
2024-01-24T01:31:31.660Z,0.40
2024-01-24T01:33:58.774Z,0.50
2024-01-24T01:36:25.670Z,0.50
2024-01-24T01:38:52.523Z,0.50
2024-01-24T01:41:19.361Z,0.70
2024-01-24T01:43:46.345Z,0.40
2024-01-24T01:46:20.045Z,0.50
2024-01-24T01:48:47.942Z,0.50
2024-01-24T01:51:15.174Z,0.57
2024-01-24T01:53:42.099Z,0.60
2024-01-24T01:56:11.160Z,0.40
2024-01-24T01:58:39.904Z,0.40
2024-01-24T02:01:08.353Z,0.40
2024-01-24T02:03:35.528Z,0.73
2024-01-24T02:06:03.111Z,0.53
2024-01-24T02:08:32.848Z,0.50
2024-01-24T02:11:00.254Z,0.50
2024-01-24T02:13:33.952Z,0.40
2024-01-24T02:16:01.147Z,0.50
2024-01-24T02:18:28.195Z,0.60
2024-01-24T02:20:55.479Z,0.50
2024-01-24T02:23:26.957Z,0.60
2024-01-24T02:25:54.411Z,0.50
2024-01-24T02:28:21.606Z,0.40
2024-01-24T02:30:48.622Z,0.50
2024-01-24T02:33:15.921Z,1.13
2024-01-24T02:35:42.934Z,0.60
2024-01-24T02:38:09.794Z,0.73
2024-01-24T02:40:36.698Z,0.87
2024-01-24T02:43:03.735Z,0.87
2024-01-24T02:45:30.574Z,0.50
2024-01-24T02:47:57.437Z,0.63
2024-01-24T02:50:24.393Z,0.57
2024-01-24T02:52:51.377Z,0.60
2024-01-24T02:55:18.254Z,0.80
2024-01-24T02:57:48.250Z,0.63
2024-01-24T03:00:24.356Z,0.70
2024-01-24T03:02:55.450Z,0.57
2024-01-24T03:05:24.490Z,0.57
2024-01-24T03:07:53.535Z,0.63
2024-01-24T03:10:24.706Z,0.90
2024-01-24T03:12:59.060Z,0.50
2024-01-24T03:15:29.060Z,0.60
2024-01-24T03:17:56.720Z,0.60
2024-01-24T03:20:26.174Z,0.50
2024-01-24T03:22:54.047Z,0.63
2024-01-24T03:25:23.853Z,0.67
2024-01-24T03:27:54.787Z,0.60
2024-01-24T03:30:24.288Z,0.63
2024-01-24T03:32:51.195Z,0.67
2024-01-24T03:35:18.145Z,0.80
2024-01-24T03:37:44.937Z,0.80
2024-01-24T03:40:12.075Z,0.60
2024-01-24T03:42:38.931Z,0.60
2024-01-24T03:45:06.231Z,0.67
2024-01-24T03:47:33.165Z,0.60
2024-01-24T03:50:00.151Z,0.50
2024-01-24T03:52:27.057Z,0.80
2024-01-24T03:54:54.014Z,1.47
2024-01-24T03:57:20.922Z,0.70
2024-01-24T03:59:47.769Z,0.67
2024-01-24T04:02:14.554Z,0.60
2024-01-24T04:04:41.407Z,0.50
2024-01-24T04:07:08.346Z,0.60
2024-01-24T04:09:35.233Z,0.67
2024-01-24T04:12:02.188Z,0.40
2024-01-24T04:14:28.981Z,0.40
2024-01-24T04:16:55.848Z,0.70
2024-01-24T04:19:22.919Z,0.80
2024-01-24T04:21:49.774Z,0.50
2024-01-24T04:24:17.020Z,0.40
2024-01-24T04:26:43.918Z,0.50
2024-01-24T04:29:13.526Z,0.50
2024-01-24T04:31:42.608Z,0.50
2024-01-24T04:34:09.619Z,0.50
2024-01-24T04:36:37.042Z,0.70
2024-01-24T04:39:04.020Z,0.50
2024-01-24T04:41:30.860Z,0.50
2024-01-24T04:43:57.666Z,0.40
2024-01-24T04:46:24.457Z,0.43
2024-01-24T04:48:51.382Z,0.70
2024-01-24T04:51:18.230Z,0.50
2024-01-24T04:53:45.111Z,0.43
2024-01-24T04:56:11.952Z,0.40
2024-01-24T04:58:40.737Z,0.40
2024-01-24T05:01:08.053Z,0.40
2024-01-24T05:03:35.137Z,0.50
2024-01-24T05:06:07.602Z,0.40
2024-01-24T05:08:37.599Z,0.60
2024-01-24T05:11:05.612Z,0.40
2024-01-24T05:13:33.122Z,0.40
2024-01-24T05:16:00.581Z,0.60
2024-01-24T05:18:27.656Z,0.77
2024-01-24T05:20:54.634Z,0.30
2024-01-24T05:23:21.851Z,0.40
2024-01-24T05:25:48.804Z,0.50
2024-01-24T05:28:15.624Z,0.50
2024-01-24T05:30:42.565Z,0.40
2024-01-24T05:33:11.512Z,0.30
2024-01-24T05:35:38.471Z,0.40
2024-01-24T05:38:05.480Z,0.50
2024-01-24T05:40:32.499Z,0.40
2024-01-24T05:43:00.673Z,0.40
2024-01-24T05:45:27.722Z,0.40
2024-01-24T05:47:54.687Z,0.40
2024-01-24T05:50:21.696Z,0.40
2024-01-24T05:52:48.556Z,0.40
2024-01-24T05:55:15.434Z,0.40
2024-01-24T05:57:43.159Z,0.40
2024-01-24T06:00:15.735Z,0.40
2024-01-24T06:02:44.458Z,0.40
2024-01-24T06:05:12.093Z,0.40
2024-01-24T06:07:40.201Z,0.40
2024-01-24T06:10:08.304Z,0.47
2024-01-24T06:12:35.162Z,0.43
2024-01-24T06:15:03.330Z,0.50
2024-01-24T06:17:31.012Z,0.50
2024-01-24T06:19:58.834Z,0.40
2024-01-24T06:22:25.626Z,0.40
2024-01-24T06:24:52.530Z,0.93
2024-01-24T06:27:19.508Z,0.60
2024-01-24T06:30:16.892Z,0.43
2024-01-24T06:32:33.147Z,0.50
2024-01-24T06:34:59.958Z,0.50
2024-01-24T06:37:26.811Z,0.43
2024-01-24T06:39:53.772Z,0.60
2024-01-24T06:42:21.237Z,0.70
2024-01-24T06:44:48.248Z,0.40
2024-01-24T06:47:15.296Z,0.50
2024-01-24T06:49:42.318Z,0.50
2024-01-24T06:52:09.164Z,0.70
2024-01-24T06:54:36.790Z,0.63
2024-01-24T06:57:04.711Z,0.97
2024-01-24T06:59:32.531Z,0.67
2024-01-24T07:02:00.340Z,1.57
2024-01-24T07:04:27.441Z,0.70
2024-01-24T07:06:54.473Z,1.13
2024-01-24T07:09:21.421Z,1.50
2024-01-24T07:11:48.223Z,1.20
2024-01-24T07:14:16.162Z,0.90
2024-01-24T07:16:45.052Z,1.87
2024-01-24T07:19:12.026Z,1.40
2024-01-24T07:21:39.119Z,1.00
2024-01-24T07:24:06.249Z,0.97
2024-01-24T07:26:33.245Z,2.13
2024-01-24T07:29:00.810Z,1.47
2024-01-24T07:31:27.667Z,1.17
2024-01-24T07:33:54.568Z,1.37
2024-01-24T07:36:24.361Z,1.43
2024-01-24T07:38:51.248Z,1.70
2024-01-24T07:41:18.212Z,2.27
2024-01-24T07:43:45.040Z,1.80
2024-01-24T07:46:12.523Z,1.80
2024-01-24T07:48:40.064Z,3.30
2024-01-24T07:51:07.188Z,3.53
2024-01-24T07:53:34.678Z,2.10
2024-01-24T07:56:10.946Z,2.00
2024-01-24T07:58:46.441Z,2.57
2024-01-24T08:01:13.798Z,2.33
2024-01-24T08:03:42.404Z,2.70
2024-01-24T08:06:09.978Z,2.80
2024-01-24T08:08:36.884Z,4.00
2024-01-24T08:11:03.996Z,3.07
2024-01-24T08:13:33.069Z,2.07
2024-01-24T08:16:00.058Z,2.47
2024-01-24T08:18:27.174Z,4.83
2024-01-24T08:20:56.451Z,2.23
2024-01-24T08:23:28.835Z,3.43
2024-01-24T08:26:01.105Z,2.57
2024-01-24T08:28:27.989Z,2.80
2024-01-24T08:30:54.942Z,2.57
2024-01-24T08:33:22.304Z,1.90
2024-01-24T08:35:49.185Z,2.70
2024-01-24T08:38:15.965Z,3.00
2024-01-24T08:40:43.140Z,2.83
2024-01-24T08:43:10.552Z,3.27
2024-01-24T08:45:37.449Z,2.57
2024-01-24T08:48:05.130Z,2.80
2024-01-24T08:50:33.201Z,2.50
2024-01-24T08:53:00.161Z,3.30
2024-01-24T08:55:27.171Z,2.97
2024-01-24T08:57:54.377Z,2.70
2024-01-24T09:00:21.486Z,2.47
2024-01-24T09:02:48.369Z,2.80
2024-01-24T09:05:19.871Z,3.47
2024-01-24T09:07:46.962Z,3.40
2024-01-24T09:10:14.225Z,3.03
2024-01-24T09:12:41.432Z,2.63
2024-01-24T09:15:09.353Z,4.00
2024-01-24T09:17:36.990Z,3.80
2024-01-24T09:20:04.776Z,2.80
2024-01-24T09:22:32.145Z,4.10
2024-01-24T09:25:00.495Z,3.20
2024-01-24T09:27:28.498Z,3.53
2024-01-24T09:29:55.420Z,3.67
2024-01-24T09:32:22.261Z,2.90
2024-01-24T09:34:49.386Z,4.07
2024-01-24T09:37:16.846Z,4.50
2024-01-24T09:39:43.641Z,4.17
2024-01-24T09:42:19.868Z,3.97
2024-01-24T09:44:50.169Z,3.90
2024-01-24T09:47:20.880Z,3.43
2024-01-24T09:49:47.925Z,4.00
2024-01-24T09:52:18.198Z,2.80
2024-01-24T09:54:46.492Z,4.83
2024-01-24T09:57:16.754Z,3.50
2024-01-24T09:59:43.772Z,3.77
2024-01-24T10:02:11.433Z,4.10
2024-01-24T10:04:39.073Z,3.20
2024-01-24T10:07:09.939Z,3.23
2024-01-24T10:09:37.092Z,3.50
2024-01-24T10:12:05.337Z,4.37
2024-01-24T10:14:33.441Z,4.40
2024-01-24T10:17:00.836Z,2.97
2024-01-24T10:19:28.693Z,3.40
2024-01-24T10:21:56.019Z,2.83
2024-01-24T10:24:23.057Z,4.37
2024-01-24T10:26:50.213Z,2.90
2024-01-24T10:29:17.718Z,4.90
2024-01-24T10:31:44.784Z,4.67
2024-01-24T10:34:12.308Z,3.67
2024-01-24T10:36:43.704Z,3.43
2024-01-24T10:39:15.512Z,3.43
2024-01-24T10:41:45.216Z,3.47
2024-01-24T10:44:18.081Z,3.43
2024-01-24T10:46:45.257Z,6.47
2024-01-24T10:49:13.878Z,4.17
2024-01-24T10:51:43.285Z,3.93
2024-01-24T10:54:13.122Z,4.00
2024-01-24T10:56:42.209Z,4.00
2024-01-24T10:59:14.292Z,3.93
2024-01-24T11:01:43.981Z,6.50
2024-01-24T11:04:13.209Z,4.90
2024-01-24T11:06:46.470Z,3.80
2024-01-24T11:09:54.748Z,5.60
2024-01-24T11:12:22.892Z,5.10
2024-01-24T11:14:50.823Z,4.70
2024-01-24T11:17:18.175Z,3.63
2024-01-24T11:19:45.513Z,4.27
2024-01-24T11:22:27.309Z,3.70
2024-01-24T11:25:00.108Z,4.20
2024-01-24T11:27:36.465Z,3.70
2024-01-24T11:30:40.222Z,3.47
2024-01-24T11:33:15.923Z,4.60
2024-01-24T11:35:48.283Z,5.00
2024-01-24T11:38:26.052Z,5.30
2024-01-24T11:41:02.277Z,4.50
2024-01-24T11:43:36.952Z,3.87
2024-01-24T11:46:10.667Z,4.33
2024-01-24T11:48:40.856Z,5.07
2024-01-24T11:51:11.349Z,4.97
2024-01-24T11:53:41.012Z,4.03
2024-01-24T11:56:18.083Z,4.27
2024-01-24T11:58:45.381Z,7.20
2024-01-24T12:01:13.758Z,3.50
2024-01-24T12:03:49.360Z,4.30
2024-01-24T12:06:18.394Z,5.00
2024-01-24T12:08:50.089Z,4.33
2024-01-24T12:11:19.108Z,4.00
2024-01-24T12:13:46.899Z,3.80
2024-01-24T12:16:14.204Z,4.97
2024-01-24T12:18:42.928Z,5.50
2024-01-24T12:21:11.197Z,4.13
2024-01-24T12:23:39.516Z,4.40
2024-01-24T12:26:07.091Z,6.47
2024-01-24T12:28:34.759Z,5.33
2024-01-24T12:31:05.972Z,3.77
2024-01-24T12:33:37.465Z,4.07
2024-01-24T12:36:06.508Z,4.53
2024-01-24T12:38:37.701Z,7.30
2024-01-24T12:41:05.952Z,4.20
2024-01-24T12:43:33.709Z,5.00
2024-01-24T12:46:10.605Z,4.50
2024-01-24T12:48:39.117Z,5.60
2024-01-24T12:51:07.298Z,3.33
2024-01-24T12:53:35.039Z,6.60
2024-01-24T12:56:02.730Z,3.97
2024-01-24T12:58:30.208Z,4.57
2024-01-24T13:00:57.776Z,4.17
2024-01-24T13:03:27.609Z,4.40
2024-01-24T13:05:57.034Z,5.40
2024-01-24T13:08:24.871Z,5.00
2024-01-24T13:10:58.248Z,4.60
2024-01-24T13:13:25.836Z,5.77
2024-01-24T13:15:55.087Z,4.63
2024-01-24T13:18:22.825Z,4.67
2024-01-24T13:20:52.957Z,4.60
2024-01-24T13:23:20.258Z,5.33
2024-01-24T13:25:50.691Z,5.73
2024-01-24T13:28:18.344Z,5.10
2024-01-24T13:30:45.845Z,3.60
2024-01-24T13:33:13.481Z,4.00
2024-01-24T13:35:40.811Z,4.37
2024-01-24T13:38:08.212Z,3.33
2024-01-24T13:40:35.671Z,4.53
2024-01-24T13:43:03.128Z,3.80
2024-01-24T13:45:31.361Z,6.33
2024-01-24T13:47:58.563Z,4.13
2024-01-24T13:50:26.175Z,3.73
2024-01-24T13:52:53.493Z,4.97
2024-01-24T13:55:22.820Z,5.73
2024-01-24T13:57:55.754Z,4.33
2024-01-24T14:00:23.161Z,4.30
2024-01-24T14:02:50.497Z,4.30
2024-01-24T14:05:18.759Z,6.37
2024-01-24T14:07:46.269Z,5.13
2024-01-24T14:10:14.274Z,7.60
2024-01-24T14:12:42.278Z,4.77
2024-01-24T14:15:20.351Z,4.30
2024-01-24T14:17:56.517Z,4.37
2024-01-24T14:20:24.947Z,4.73
2024-01-24T14:22:52.624Z,4.37
2024-01-24T14:25:19.825Z,4.07
2024-01-24T14:27:47.139Z,3.03
2024-01-24T14:30:15.049Z,4.40
2024-01-24T14:32:42.428Z,5.73
2024-01-24T14:35:10.317Z,4.30
2024-01-24T14:37:39.189Z,6.37
2024-01-24T14:40:07.543Z,4.87
2024-01-24T14:42:37.872Z,4.60
2024-01-24T14:45:07.611Z,4.73
2024-01-24T14:47:34.963Z,4.20
2024-01-24T14:50:02.444Z,4.70
2024-01-24T14:52:29.982Z,4.47
2024-01-24T14:55:06.087Z,4.77
2024-01-24T14:57:34.048Z,4.30
2024-01-24T15:00:02.179Z,4.80
2024-01-24T15:02:29.525Z,4.70
2024-01-24T15:04:59.959Z,3.60
2024-01-24T15:07:29.651Z,4.13
2024-01-24T15:10:02.722Z,5.67
2024-01-24T15:12:30.253Z,3.60
2024-01-24T15:15:01.096Z,3.73
2024-01-24T15:17:28.916Z,5.23
2024-01-24T15:19:56.369Z,4.73
2024-01-24T15:22:24.057Z,3.60
2024-01-24T15:24:54.433Z,4.20
2024-01-24T15:27:23.378Z,3.67
2024-01-24T15:29:52.409Z,4.30
2024-01-24T15:32:20.085Z,4.87
2024-01-24T15:34:48.600Z,5.07
2024-01-24T15:37:21.468Z,4.90
2024-01-24T15:39:51.788Z,4.50
2024-01-24T15:42:23.361Z,4.43
2024-01-24T15:44:51.286Z,4.97
2024-01-24T15:47:25.313Z,4.30
2024-01-24T15:49:52.790Z,5.97
2024-01-24T15:52:23.253Z,5.03
2024-01-24T15:54:53.237Z,4.60
2024-01-24T15:57:23.579Z,3.20
2024-01-24T15:59:51.429Z,3.27
2024-01-24T16:02:18.728Z,4.67
2024-01-24T16:04:59.047Z,3.90
2024-01-24T16:07:26.512Z,4.20
2024-01-24T16:09:55.078Z,4.30
2024-01-24T16:12:22.540Z,4.17
2024-01-24T16:14:49.981Z,4.77
2024-01-24T16:17:17.105Z,3.50
2024-01-24T16:19:44.404Z,4.83
2024-01-24T16:22:14.931Z,4.17
2024-01-24T16:24:42.532Z,3.60
2024-01-24T16:27:09.787Z,8.13
2024-01-24T16:29:36.940Z,6.80
2024-01-24T16:32:04.501Z,4.67
2024-01-24T16:34:31.873Z,5.00
2024-01-24T16:36:59.347Z,4.70
2024-01-24T16:39:26.742Z,4.47
2024-01-24T16:41:54.590Z,4.90
2024-01-24T16:44:23.700Z,6.20
2024-01-24T16:46:51.097Z,4.93
2024-01-24T16:49:18.321Z,5.20
2024-01-24T16:51:45.629Z,5.53
2024-01-24T16:54:12.963Z,3.10
2024-01-24T16:56:40.153Z,5.07
2024-01-24T16:59:08.452Z,4.90
2024-01-24T17:01:35.860Z,5.33
2024-01-24T17:04:06.371Z,3.67
2024-01-24T17:06:33.996Z,3.73
2024-01-24T17:09:01.450Z,3.93
2024-01-24T17:11:28.737Z,4.90
2024-01-24T17:13:56.142Z,4.00
2024-01-24T17:16:23.558Z,4.40
2024-01-24T17:18:51.073Z,5.00
2024-01-24T17:21:18.423Z,4.13
2024-01-24T17:23:46.906Z,6.60
2024-01-24T17:26:14.469Z,5.57
2024-01-24T17:28:41.852Z,4.73
2024-01-24T17:31:11.070Z,4.50
2024-01-24T17:33:38.600Z,4.13
2024-01-24T17:36:06.317Z,5.70
2024-01-24T17:38:33.790Z,4.37
2024-01-24T17:41:01.827Z,4.60
2024-01-24T17:43:29.915Z,4.37
2024-01-24T17:45:57.664Z,4.80
2024-01-24T17:48:25.304Z,5.13
2024-01-24T17:50:52.933Z,4.20
2024-01-24T17:53:20.356Z,4.33
2024-01-24T17:55:47.898Z,4.43
2024-01-24T17:58:18.278Z,7.67
2024-01-24T18:00:45.680Z,5.17
2024-01-24T18:03:13.237Z,6.30
2024-01-24T18:05:41.173Z,5.50
2024-01-24T18:08:08.865Z,5.10
2024-01-24T18:10:36.658Z,4.80
2024-01-24T18:13:04.189Z,4.97
2024-01-24T18:15:33.420Z,5.50
2024-01-24T18:18:01.945Z,5.20
2024-01-24T18:20:33.567Z,5.03
2024-01-24T18:23:01.752Z,4.20
2024-01-24T18:25:29.615Z,4.20
2024-01-24T18:27:57.075Z,4.70
2024-01-24T18:30:24.286Z,5.40
2024-01-24T18:32:54.964Z,4.90
2024-01-24T18:35:25.355Z,6.03
2024-01-24T18:37:52.959Z,4.20
2024-01-24T18:40:20.266Z,4.80
2024-01-24T18:42:52.082Z,5.50
2024-01-24T18:45:19.688Z,5.20
2024-01-24T18:47:48.616Z,5.97
2024-01-24T18:50:16.748Z,4.70
2024-01-24T18:52:45.477Z,4.83
2024-01-24T18:55:13.954Z,4.60
2024-01-24T18:57:41.513Z,4.53
2024-01-24T19:00:12.520Z,5.80
2024-01-24T19:02:40.189Z,6.10
2024-01-24T19:05:15.943Z,5.47
2024-01-24T19:07:47.568Z,4.57
2024-01-24T19:10:15.423Z,4.30
2024-01-24T19:12:42.307Z,6.50
2024-01-24T19:15:09.361Z,5.00
2024-01-24T19:17:37.265Z,7.73
2024-01-24T19:20:04.631Z,5.40
2024-01-24T19:22:32.008Z,4.73
2024-01-24T19:24:58.899Z,5.40
2024-01-24T19:27:25.766Z,5.80
2024-01-24T19:29:52.686Z,5.80
2024-01-24T19:32:19.601Z,7.07
2024-01-24T19:34:57.079Z,5.83
2024-01-24T19:37:23.979Z,8.60
2024-01-24T19:39:50.889Z,7.20
2024-01-24T19:42:17.926Z,6.80
2024-01-24T19:44:44.866Z,6.10
2024-01-24T19:47:11.695Z,5.77
2024-01-24T19:49:38.689Z,6.03
2024-01-24T19:52:05.819Z,7.90
2024-01-24T19:54:33.423Z,7.00
2024-01-24T19:57:00.405Z,6.37
2024-01-24T19:59:27.358Z,5.80
2024-01-24T20:01:55.368Z,5.73
2024-01-24T20:04:22.350Z,5.00
2024-01-24T20:06:49.284Z,5.23
2024-01-24T20:09:18.062Z,4.40
2024-01-24T20:11:45.583Z,4.77
2024-01-24T20:14:12.550Z,5.50
2024-01-24T20:16:39.674Z,6.37
2024-01-24T20:19:06.921Z,5.40
2024-01-24T20:21:39.865Z,4.53
2024-01-24T20:24:09.000Z,5.53
2024-01-24T20:26:35.980Z,5.20
2024-01-24T20:29:02.961Z,6.17
2024-01-24T20:31:29.965Z,5.67
2024-01-24T20:33:57.547Z,4.90
2024-01-24T20:36:24.818Z,5.43
2024-01-24T20:38:51.685Z,5.43
2024-01-24T20:41:18.571Z,7.73
2024-01-24T20:43:46.074Z,5.87
2024-01-24T20:46:14.418Z,5.13
2024-01-24T20:48:42.192Z,7.10
2024-01-24T20:51:09.443Z,5.43
2024-01-24T20:53:36.496Z,5.50
2024-01-24T20:56:04.473Z,7.03
2024-01-24T20:58:31.734Z,4.77
2024-01-24T21:00:59.687Z,7.63
2024-01-24T21:03:26.872Z,5.30
2024-01-24T21:05:56.023Z,5.50
2024-01-24T21:08:24.534Z,5.17
2024-01-24T21:10:55.914Z,5.63
2024-01-24T21:13:29.626Z,5.57
2024-01-24T21:15:56.755Z,4.77
2024-01-24T21:18:24.117Z,4.80
2024-01-24T21:20:51.434Z,5.57
2024-01-24T21:23:18.491Z,5.30
2024-01-24T21:25:45.375Z,5.40
2024-01-24T21:28:12.276Z,5.67
2024-01-24T21:30:39.318Z,7.13
2024-01-24T21:33:06.296Z,4.30
2024-01-24T21:35:33.150Z,5.23
2024-01-24T21:38:00.057Z,5.60
2024-01-24T21:40:26.855Z,4.57
2024-01-24T21:42:53.854Z,8.80
2024-01-24T21:45:20.808Z,8.10
2024-01-24T21:47:47.662Z,8.17
2024-01-24T21:50:14.571Z,7.00
2024-01-24T21:52:41.371Z,7.93
2024-01-24T21:55:08.639Z,6.87
2024-01-24T21:57:35.567Z,5.87
2024-01-24T22:00:02.568Z,6.17
2024-01-24T22:02:29.467Z,5.27
2024-01-24T22:04:56.291Z,5.10
2024-01-24T22:07:23.243Z,4.97
2024-01-24T22:09:52.402Z,4.93
2024-01-24T22:12:19.317Z,5.53
2024-01-24T22:14:46.240Z,3.93
2024-01-24T22:17:13.285Z,4.80
2024-01-24T22:19:40.263Z,4.40
2024-01-24T22:22:07.261Z,5.33
2024-01-24T22:24:34.225Z,5.30
2024-01-24T22:27:01.158Z,5.90
2024-01-24T22:29:28.319Z,5.50
2024-01-24T22:31:55.172Z,5.07
2024-01-24T22:34:22.289Z,5.97
2024-01-24T22:36:49.327Z,4.90
2024-01-24T22:39:16.714Z,5.83
2024-01-24T22:41:43.673Z,5.83
2024-01-24T22:44:11.293Z,5.30
2024-01-24T22:46:41.551Z,6.27
2024-01-24T22:49:09.832Z,5.20
2024-01-24T22:51:37.326Z,5.30
2024-01-24T22:54:04.282Z,5.50
2024-01-24T22:56:31.737Z,4.27
2024-01-24T22:58:58.588Z,6.97
2024-01-24T23:01:26.197Z,4.97
2024-01-24T23:03:53.106Z,4.57
2024-01-24T23:06:20.070Z,5.97
2024-01-24T23:08:46.949Z,5.43
2024-01-24T23:11:14.127Z,7.03
2024-01-24T23:13:41.782Z,4.73
2024-01-24T23:16:09.396Z,5.87
2024-01-24T23:18:36.599Z,5.97
2024-01-24T23:21:03.680Z,5.73
2024-01-24T23:23:30.752Z,6.00
2024-01-24T23:25:57.716Z,6.80
2024-01-24T23:28:24.762Z,6.63
2024-01-24T23:30:52.213Z,6.13
2024-01-24T23:33:19.486Z,6.57
2024-01-24T23:35:46.470Z,5.73
2024-01-24T23:38:13.378Z,6.17
2024-01-24T23:40:40.412Z,5.37
2024-01-24T23:43:07.379Z,7.23
2024-01-24T23:45:34.366Z,6.40
2024-01-24T23:48:01.430Z,5.20
2024-01-24T23:50:28.588Z,6.00
2024-01-24T23:52:58.790Z,6.17
2024-01-24T23:55:26.903Z,6.30
2024-01-24T23:57:55.122Z,5.70
